Time;durP1;ratioP1;P1;durP2;ratioP2;P2;SDS_P1;SDS_P2;PMS_P1;PMS_P2;Temp;Humidity;BMP_temperature;BMP_pressure;BME280_temperature;BME280_humidity;BME280_pressure;Samples;Min_cycle;Max_cycle;Signal;HPM_P1;HPM_P2
2021/05/09 00:00:49;;;;;;;2.73;2.40;;;;;;;;;;5077863;28;20238;-63
2021/05/09 00:03:15;;;;;;;3.23;1.80;;;;;;;;;;5075235;28;20547;-60
2021/05/09 00:05:41;;;;;;;2.80;2.40;;;;;;;;;;5077545;28;20184;-60
2021/05/09 00:08:07;;;;;;;2.10;1.90;;;;;;;;;;5063460;28;20195;-61
2021/05/09 00:10:33;;;;;;;3.00;2.40;;;;;;;;;;5077456;28;20191;-63
2021/05/09 00:12:59;;;;;;;3.50;2.10;;;;;;;;;;5093561;28;20286;-60
2021/05/09 00:15:26;;;;;;;4.13;2.20;;;;;;;;;;5075562;28;20208;-60
2021/05/09 00:17:52;;;;;;;2.20;2.00;;;;;;;;;;5089545;28;20180;-59
2021/05/09 00:20:20;;;;;;;2.07;1.90;;;;;;;;;;5090434;28;20586;-61
2021/05/09 00:22:46;;;;;;;3.73;1.93;;;;;;;;;;5090217;28;20178;-61
2021/05/09 00:25:12;;;;;;;2.13;1.90;;;;;;;;;;5088026;28;20176;-60
2021/05/09 00:27:39;;;;;;;2.03;1.83;;;;;;;;;;5078631;28;20186;-60
2021/05/09 00:30:06;;;;;;;2.77;1.90;;;;;;;;;;5059800;28;20180;-60
2021/05/09 00:32:32;;;;;;;2.57;2.07;;;;;;;;;;5056214;28;20216;-60
2021/05/09 00:34:58;;;;;;;2.40;1.60;;;;;;;;;;5086753;28;20191;-60
2021/05/09 00:37:24;;;;;;;2.90;2.00;;;;;;;;;;5086484;28;20175;-60
2021/05/09 00:39:50;;;;;;;3.20;2.10;;;;;;;;;;5089329;28;20179;-59
2021/05/09 00:42:17;;;;;;;2.30;1.87;;;;;;;;;;5090138;28;20195;-59
2021/05/09 00:44:43;;;;;;;2.80;2.00;;;;;;;;;;5090124;28;20259;-60
2021/05/09 00:47:10;;;;;;;3.43;1.90;;;;;;;;;;5084050;28;20184;-61
2021/05/09 00:49:37;;;;;;;2.07;1.80;;;;;;;;;;5089158;28;20212;-60
2021/05/09 00:52:03;;;;;;;2.57;2.07;;;;;;;;;;5077353;28;20187;-60
2021/05/09 00:54:31;;;;;;;2.20;2.00;;;;;;;;;;5080259;28;20190;-60
2021/05/09 00:56:57;;;;;;;2.10;1.87;;;;;;;;;;5085053;28;20191;-60
2021/05/09 00:59:23;;;;;;;1.83;1.63;;;;;;;;;;5083614;28;20576;-60
2021/05/09 01:01:50;;;;;;;2.83;1.77;;;;;;;;;;5076547;28;20211;-61
2021/05/09 01:04:16;;;;;;;1.97;1.80;;;;;;;;;;5089208;28;20311;-59
2021/05/09 01:06:43;;;;;;;2.23;2.03;;;;;;;;;;5087037;28;20187;-60
2021/05/09 01:09:09;;;;;;;2.23;1.90;;;;;;;;;;5088995;28;20180;-59
2021/05/09 01:11:36;;;;;;;1.93;1.77;;;;;;;;;;5089853;28;20179;-60
2021/05/09 01:14:02;;;;;;;1.77;1.63;;;;;;;;;;5090658;28;20846;-60
2021/05/09 01:16:28;;;;;;;2.00;1.90;;;;;;;;;;5068519;28;20290;-60
2021/05/09 01:18:54;;;;;;;3.23;2.00;;;;;;;;;;5084564;28;20799;-60
2021/05/09 01:21:20;;;;;;;2.10;1.63;;;;;;;;;;5074447;28;20188;-61
2021/05/09 01:23:46;;;;;;;2.57;1.93;;;;;;;;;;5080680;28;20172;-60
2021/05/09 01:26:12;;;;;;;2.30;2.10;;;;;;;;;;5075731;28;20180;-59
2021/05/09 01:28:38;;;;;;;3.30;1.90;;;;;;;;;;5090216;28;20191;-60
2021/05/09 01:31:04;;;;;;;2.13;1.97;;;;;;;;;;5086920;28;20177;-59
2021/05/09 01:33:30;;;;;;;3.03;2.07;;;;;;;;;;5090687;28;20265;-60
2021/05/09 01:35:56;;;;;;;1.83;1.60;;;;;;;;;;5085815;28;20209;-59
2021/05/09 01:38:22;;;;;;;1.70;1.60;;;;;;;;;;5092683;28;20184;-60
2021/05/09 01:40:48;;;;;;;2.23;1.93;;;;;;;;;;5075173;28;20190;-60
2021/05/09 01:43:14;;;;;;;2.30;1.87;;;;;;;;;;5077522;28;20706;-60
2021/05/09 01:45:41;;;;;;;2.23;1.90;;;;;;;;;;5094095;28;20187;-60
2021/05/09 01:48:07;;;;;;;2.50;1.73;;;;;;;;;;5071900;28;20184;-60
2021/05/09 01:50:33;;;;;;;1.80;1.70;;;;;;;;;;5075995;28;20242;-60
2021/05/09 01:53:03;;;;;;;2.77;1.90;;;;;;;;;;5075211;28;20591;-60
2021/05/09 01:55:29;;;;;;;2.40;2.00;;;;;;;;;;5085249;28;20200;-60
2021/05/09 01:57:55;;;;;;;2.10;1.90;;;;;;;;;;5066031;28;20595;-60
2021/05/09 02:00:22;;;;;;;2.70;1.70;;;;;;;;;;5092279;28;20183;-60
2021/05/09 02:02:48;;;;;;;2.00;1.70;;;;;;;;;;5087271;28;20508;-60
2021/05/09 02:05:16;;;;;;;2.33;1.80;;;;;;;;;;5093557;28;20172;-62
2021/05/09 02:07:42;;;;;;;1.80;1.70;;;;;;;;;;5087829;28;20179;-60
2021/05/09 02:10:15;;;;;;;1.90;1.80;;;;;;;;;;5073345;28;20183;-60
2021/05/09 02:12:41;;;;;;;2.30;1.67;;;;;;;;;;5080296;28;20631;-60
2021/05/09 02:15:09;;;;;;;1.90;1.80;;;;;;;;;;5089238;28;20255;-60
2021/05/09 02:17:35;;;;;;;1.47;1.37;;;;;;;;;;5078901;28;20574;-61
2021/05/09 02:20:01;;;;;;;2.30;1.97;;;;;;;;;;5088884;28;20184;-61
2021/05/09 02:22:27;;;;;;;2.67;2.47;;;;;;;;;;5091959;28;20186;-60
2021/05/09 02:24:53;;;;;;;2.00;1.80;;;;;;;;;;5073590;28;20172;-60
2021/05/09 02:27:19;;;;;;;2.20;1.80;;;;;;;;;;5092157;28;20183;-60
2021/05/09 02:29:45;;;;;;;2.00;1.50;;;;;;;;;;5078132;28;20184;-62
2021/05/09 02:32:11;;;;;;;2.23;2.03;;;;;;;;;;5056471;28;20196;-60
2021/05/09 02:34:37;;;;;;;3.20;1.70;;;;;;;;;;5085448;28;20183;-60
2021/05/09 02:37:04;;;;;;;3.17;1.97;;;;;;;;;;5087866;28;20196;-60
2021/05/09 02:39:30;;;;;;;2.60;1.87;;;;;;;;;;5085316;28;20179;-60
2021/05/09 02:41:56;;;;;;;1.53;1.43;;;;;;;;;;5073624;28;20669;-62
2021/05/09 02:44:22;;;;;;;2.75;1.63;;;;;;;;;;5073231;28;20424;-61
2021/05/09 02:46:48;;;;;;;1.60;1.50;;;;;;;;;;5073551;28;20186;-60
2021/05/09 02:49:14;;;;;;;1.70;1.50;;;;;;;;;;5086120;28;20195;-60
2021/05/09 02:51:40;;;;;;;1.67;1.53;;;;;;;;;;5085109;28;20541;-60
2021/05/09 02:54:06;;;;;;;1.50;1.40;;;;;;;;;;5061971;28;20179;-61
2021/05/09 02:56:32;;;;;;;2.07;1.80;;;;;;;;;;5088563;28;20237;-60
2021/05/09 02:58:58;;;;;;;2.07;1.60;;;;;;;;;;5068511;28;20221;-60
2021/05/09 03:01:24;;;;;;;1.67;1.50;;;;;;;;;;5075237;28;20196;-60
2021/05/09 03:03:51;;;;;;;2.80;1.57;;;;;;;;;;5061902;28;20212;-60
2021/05/09 03:06:17;;;;;;;2.23;1.50;;;;;;;;;;5072938;28;20194;-60
2021/05/09 03:08:43;;;;;;;2.40;1.80;;;;;;;;;;5088183;28;20171;-60
2021/05/09 03:11:09;;;;;;;2.60;1.80;;;;;;;;;;5091494;28;20225;-60
2021/05/09 03:13:35;;;;;;;1.93;1.80;;;;;;;;;;5058599;28;20654;-60
2021/05/09 03:16:02;;;;;;;2.40;1.90;;;;;;;;;;5073273;28;20253;-60
2021/05/09 03:18:28;;;;;;;2.70;1.90;;;;;;;;;;5078701;28;20180;-60
2021/05/09 03:20:54;;;;;;;3.10;1.80;;;;;;;;;;5078447;28;20173;-61
2021/05/09 03:23:20;;;;;;;1.77;1.67;;;;;;;;;;5082228;28;20258;-60
2021/05/09 03:25:47;;;;;;;3.57;2.00;;;;;;;;;;5090018;28;20182;-63
2021/05/09 03:28:13;;;;;;;1.80;1.53;;;;;;;;;;5082549;28;20180;-60
2021/05/09 03:30:39;;;;;;;1.70;1.60;;;;;;;;;;5073681;28;20180;-60
2021/05/09 03:33:06;;;;;;;1.70;1.57;;;;;;;;;;5082778;28;20219;-60
2021/05/09 03:35:32;;;;;;;2.80;1.97;;;;;;;;;;5090968;28;20623;-62
2021/05/09 03:37:59;;;;;;;2.37;1.63;;;;;;;;;;5086363;28;20176;-60
2021/05/09 03:40:25;;;;;;;1.97;1.63;;;;;;;;;;5068787;28;20172;-59
2021/05/09 03:42:51;;;;;;;2.13;1.60;;;;;;;;;;5077629;28;20172;-60
2021/05/09 03:45:17;;;;;;;2.23;1.80;;;;;;;;;;5074081;28;20729;-59
2021/05/09 03:47:43;;;;;;;2.83;1.87;;;;;;;;;;5078514;28;20530;-60
2021/05/09 03:50:09;;;;;;;2.87;2.67;;;;;;;;;;5087574;28;20192;-60
2021/05/09 03:52:35;;;;;;;3.50;2.47;;;;;;;;;;5090465;28;20776;-60
2021/05/09 03:55:01;;;;;;;2.53;1.83;;;;;;;;;;5090096;28;20176;-59
2021/05/09 03:57:27;;;;;;;3.90;1.77;;;;;;;;;;5063216;28;20218;-62
2021/05/09 03:59:53;;;;;;;2.30;1.80;;;;;;;;;;5090309;28;20176;-59
2021/05/09 04:02:20;;;;;;;2.00;1.80;;;;;;;;;;5079315;28;20544;-60
2021/05/09 04:04:46;;;;;;;2.33;1.70;;;;;;;;;;5075299;28;20238;-60
2021/05/09 04:07:12;;;;;;;1.70;1.60;;;;;;;;;;5084728;28;20736;-62
2021/05/09 04:09:38;;;;;;;2.13;1.90;;;;;;;;;;5079683;28;20180;-60
2021/05/09 04:12:06;;;;;;;1.70;1.60;;;;;;;;;;5065781;28;20187;-60
2021/05/09 04:14:33;;;;;;;4.03;2.03;;;;;;;;;;5086462;28;20180;-60
2021/05/09 04:16:59;;;;;;;1.93;1.77;;;;;;;;;;5077959;28;20196;-60
2021/05/09 04:19:25;;;;;;;2.80;1.93;;;;;;;;;;5089300;28;20207;-60
2021/05/09 04:21:51;;;;;;;1.90;1.70;;;;;;;;;;5081432;28;20168;-61
2021/05/09 04:24:17;;;;;;;4.27;2.17;;;;;;;;;;5082193;28;20547;-60
2021/05/09 04:26:43;;;;;;;1.80;1.70;;;;;;;;;;5073580;28;20195;-60
2021/05/09 04:29:09;;;;;;;2.63;1.40;;;;;;;;;;5085513;28;20298;-59
2021/05/09 04:31:36;;;;;;;1.70;1.60;;;;;;;;;;5087219;28;20606;-61
2021/05/09 04:34:02;;;;;;;1.70;1.60;;;;;;;;;;5078524;28;20227;-60
2021/05/09 04:36:28;;;;;;;1.43;1.33;;;;;;;;;;5072435;28;20215;-60
2021/05/09 04:38:54;;;;;;;1.57;1.30;;;;;;;;;;5081939;28;20179;-60
2021/05/09 04:41:20;;;;;;;1.70;1.60;;;;;;;;;;5086179;28;20164;-60
2021/05/09 04:43:46;;;;;;;1.90;1.80;;;;;;;;;;5091091;28;20557;-62
2021/05/09 04:46:12;;;;;;;1.87;1.50;;;;;;;;;;5089657;28;20193;-59
2021/05/09 04:48:38;;;;;;;2.53;1.70;;;;;;;;;;5066376;28;20203;-62
2021/05/09 04:51:04;;;;;;;2.27;1.63;;;;;;;;;;5069318;28;20611;-60
2021/05/09 04:53:31;;;;;;;1.50;1.40;;;;;;;;;;5077545;28;20233;-60
2021/05/09 04:55:58;;;;;;;1.50;1.40;;;;;;;;;;5085909;28;20619;-60
2021/05/09 04:58:25;;;;;;;2.47;1.73;;;;;;;;;;5090128;28;20211;-59
2021/05/09 05:00:52;;;;;;;1.80;1.70;;;;;;;;;;5072694;28;20278;-60
2021/05/09 05:03:19;;;;;;;2.10;1.90;;;;;;;;;;5072346;28;20214;-62
2021/05/09 05:05:45;;;;;;;1.90;1.70;;;;;;;;;;5080433;28;20180;-59
2021/05/09 05:08:11;;;;;;;2.00;1.70;;;;;;;;;;5069763;28;20635;-60
2021/05/09 05:10:37;;;;;;;2.37;1.47;;;;;;;;;;5088797;28;20229;-60
2021/05/09 05:13:03;;;;;;;1.70;1.53;;;;;;;;;;5090583;28;20180;-60
2021/05/09 05:15:29;;;;;;;2.07;1.60;;;;;;;;;;5073475;28;20232;-60
2021/05/09 05:17:55;;;;;;;1.57;1.47;;;;;;;;;;5073102;28;20177;-60
2021/05/09 05:20:21;;;;;;;1.93;1.73;;;;;;;;;;5068567;28;20180;-59
2021/05/09 05:22:47;;;;;;;2.00;1.90;;;;;;;;;;5081238;28;20172;-60
2021/05/09 05:25:14;;;;;;;2.00;1.77;;;;;;;;;;5087186;28;20537;-60
2021/05/09 05:27:40;;;;;;;2.63;2.00;;;;;;;;;;5088438;28;20661;-61
2021/05/09 05:30:06;;;;;;;2.40;1.50;;;;;;;;;;5059621;28;20268;-60
2021/05/09 05:32:32;;;;;;;1.87;1.63;;;;;;;;;;5070664;28;20602;-60
2021/05/09 05:34:58;;;;;;;2.50;1.73;;;;;;;;;;5089146;28;20184;-60
2021/05/09 05:37:24;;;;;;;2.00;1.67;;;;;;;;;;5085077;28;20200;-62
2021/05/09 05:39:50;;;;;;;1.77;1.40;;;;;;;;;;5079009;28;20179;-60
2021/05/09 05:42:16;;;;;;;1.83;1.60;;;;;;;;;;5072344;28;20168;-60
2021/05/09 05:44:42;;;;;;;3.53;1.70;;;;;;;;;;5088955;28;20184;-60
2021/05/09 05:47:08;;;;;;;3.90;1.70;;;;;;;;;;5089902;28;20184;-60
2021/05/09 05:49:34;;;;;;;2.50;1.70;;;;;;;;;;5078375;28;20204;-59
2021/05/09 05:52:00;;;;;;;2.43;1.37;;;;;;;;;;5079671;28;20177;-60
2021/05/09 05:54:27;;;;;;;1.93;1.40;;;;;;;;;;5062151;28;20788;-61
2021/05/09 05:56:53;;;;;;;1.70;1.47;;;;;;;;;;5071806;28;20200;-60
2021/05/09 05:59:19;;;;;;;1.80;1.60;;;;;;;;;;5090055;28;20194;-61
2021/05/09 06:01:46;;;;;;;2.10;1.87;;;;;;;;;;5068132;28;20175;-60
2021/05/09 06:04:11;;;;;;;1.60;1.40;;;;;;;;;;5086581;28;20531;-61
2021/05/09 06:06:38;;;;;;;1.40;1.30;;;;;;;;;;5081821;28;20193;-61
2021/05/09 06:09:04;;;;;;;1.60;1.50;;;;;;;;;;5078002;28;20168;-60
2021/05/09 06:11:30;;;;;;;1.50;1.40;;;;;;;;;;5072046;28;20279;-60
2021/05/09 06:13:56;;;;;;;1.40;1.20;;;;;;;;;;5079812;28;20208;-59
2021/05/09 06:16:22;;;;;;;2.00;1.80;;;;;;;;;;5084266;28;20223;-60
2021/05/09 06:18:48;;;;;;;2.07;1.40;;;;;;;;;;5093751;28;20176;-60
2021/05/09 06:21:14;;;;;;;1.53;1.43;;;;;;;;;;5092463;28;20282;-60
2021/05/09 06:23:40;;;;;;;1.67;1.53;;;;;;;;;;5075364;28;20634;-60
2021/05/09 06:26:06;;;;;;;1.73;1.63;;;;;;;;;;5071860;28;20188;-60
2021/05/09 06:28:32;;;;;;;1.80;1.70;;;;;;;;;;5093532;28;20183;-60
2021/05/09 06:30:58;;;;;;;3.87;1.90;;;;;;;;;;5074856;28;20183;-59
2021/05/09 06:33:24;;;;;;;2.17;1.97;;;;;;;;;;5088410;28;20220;-60
2021/05/09 06:35:51;;;;;;;1.70;1.60;;;;;;;;;;5093574;28;20199;-59
2021/05/09 06:38:17;;;;;;;1.80;1.50;;;;;;;;;;5069101;28;20196;-59
2021/05/09 06:40:43;;;;;;;2.60;1.80;;;;;;;;;;5077754;28;20457;-60
2021/05/09 06:43:09;;;;;;;1.80;1.60;;;;;;;;;;5079308;28;20239;-60
2021/05/09 06:45:35;;;;;;;1.60;1.50;;;;;;;;;;5076270;28;20255;-60
2021/05/09 06:48:03;;;;;;;1.87;1.67;;;;;;;;;;5072582;28;20707;-60
2021/05/09 06:50:30;;;;;;;3.77;1.80;;;;;;;;;;5078220;28;20211;-59
2021/05/09 06:52:57;;;;;;;4.27;1.50;;;;;;;;;;5083158;28;20184;-59
2021/05/09 06:55:23;;;;;;;2.13;1.90;;;;;;;;;;5077285;28;20164;-59
2021/05/09 06:57:50;;;;;;;3.27;1.87;;;;;;;;;;5076680;28;20184;-59
2021/05/09 07:00:17;;;;;;;2.67;1.83;;;;;;;;;;5077800;28;20177;-60
2021/05/09 07:02:44;;;;;;;1.53;1.43;;;;;;;;;;5083027;28;20198;-59
2021/05/09 07:05:10;;;;;;;1.93;1.50;;;;;;;;;;5075975;28;20172;-59
2021/05/09 07:08:05;;;;;;;3.87;1.60;;;;;;;;;;5076043;28;20176;-59
2021/05/09 07:10:33;;;;;;;1.57;1.40;;;;;;;;;;5067091;28;20184;-59
2021/05/09 07:12:59;;;;;;;3.40;1.60;;;;;;;;;;5088043;28;20171;-59
2021/05/09 07:15:28;;;;;;;1.77;1.57;;;;;;;;;;5085244;28;20171;-59
2021/05/09 07:18:03;;;;;;;1.77;1.67;;;;;;;;;;5070823;28;20647;-61
2021/05/09 07:20:30;;;;;;;2.47;1.77;;;;;;;;;;5080659;28;20194;-59
2021/05/09 07:22:58;;;;;;;2.70;1.50;;;;;;;;;;5084381;28;20238;-59
2021/05/09 07:25:24;;;;;;;3.20;1.60;;;;;;;;;;5073336;28;20226;-59
2021/05/09 07:27:50;;;;;;;2.00;1.63;;;;;;;;;;5072833;28;20661;-60
2021/05/09 07:30:16;;;;;;;1.87;1.73;;;;;;;;;;5079209;28;20226;-63
2021/05/09 07:32:42;;;;;;;1.80;1.70;;;;;;;;;;5064239;28;20250;-59
2021/05/09 07:35:09;;;;;;;1.63;1.40;;;;;;;;;;5073388;28;20180;-59
2021/05/09 07:37:35;;;;;;;2.73;1.80;;;;;;;;;;5075022;28;20665;-59
2021/05/09 07:40:01;;;;;;;2.20;1.50;;;;;;;;;;5085895;28;20641;-58
2021/05/09 07:42:27;;;;;;;2.47;1.60;;;;;;;;;;5068615;28;20175;-59
2021/05/09 07:44:57;;;;;;;3.63;1.57;;;;;;;;;;5066021;28;20176;-60
2021/05/09 07:47:23;;;;;;;2.23;1.80;;;;;;;;;;5064016;28;21402;-62
2021/05/09 07:49:49;;;;;;;3.20;1.70;;;;;;;;;;5086887;28;20238;-60
2021/05/09 07:52:15;;;;;;;2.63;1.70;;;;;;;;;;5079341;28;20184;-61
2021/05/09 07:54:41;;;;;;;2.03;1.83;;;;;;;;;;5084153;28;21294;-60
2021/05/09 07:57:07;;;;;;;1.50;1.40;;;;;;;;;;5076508;28;20671;-61
2021/05/09 07:59:34;;;;;;;2.80;1.93;;;;;;;;;;5086156;28;20176;-61
2021/05/09 08:02:01;;;;;;;4.40;1.60;;;;;;;;;;5073338;28;20184;-61
2021/05/09 08:04:27;;;;;;;1.90;1.70;;;;;;;;;;5090131;28;20199;-62
2021/05/09 08:06:53;;;;;;;1.60;1.50;;;;;;;;;;5084505;28;20211;-62
2021/05/09 08:09:19;;;;;;;2.37;1.87;;;;;;;;;;5078997;28;20168;-63
2021/05/09 08:11:45;;;;;;;1.93;1.73;;;;;;;;;;5055381;28;20180;-61
2021/05/09 08:14:11;;;;;;;2.40;1.53;;;;;;;;;;5085645;28;20168;-63
2021/05/09 08:16:37;;;;;;;1.77;1.30;;;;;;;;;;5060036;28;20228;-67
2021/05/09 08:19:03;;;;;;;1.70;1.60;;;;;;;;;;5083658;28;20231;-65
2021/05/09 08:21:29;;;;;;;3.43;1.83;;;;;;;;;;5087404;28;20180;-64
2021/05/09 08:23:55;;;;;;;2.90;1.73;;;;;;;;;;5072962;28;20665;-66
2021/05/09 08:26:21;;;;;;;2.33;2.07;;;;;;;;;;5059383;28;20181;-66
2021/05/09 08:28:47;;;;;;;3.93;1.87;;;;;;;;;;5059677;28;20329;-67
2021/05/09 08:31:16;;;;;;;3.73;1.87;;;;;;;;;;5064353;28;20547;-66
2021/05/09 08:33:42;;;;;;;1.87;1.73;;;;;;;;;;5075689;28;20281;-66
2021/05/09 08:36:09;;;;;;;3.20;1.87;;;;;;;;;;5052916;28;20216;-67
2021/05/09 08:38:35;;;;;;;2.70;1.63;;;;;;;;;;5078275;28;20206;-65
2021/05/09 08:41:01;;;;;;;1.77;1.67;;;;;;;;;;5083212;28;20259;-67
2021/05/09 08:43:27;;;;;;;3.27;1.77;;;;;;;;;;5086524;28;20282;-67
2021/05/09 08:45:53;;;;;;;1.93;1.73;;;;;;;;;;5088838;28;20609;-66
2021/05/09 08:48:23;;;;;;;3.03;2.13;;;;;;;;;;5073610;28;20208;-68
2021/05/09 08:50:50;;;;;;;3.77;1.70;;;;;;;;;;5074525;28;20200;-67
2021/05/09 08:53:17;;;;;;;3.87;2.33;;;;;;;;;;5086489;28;20539;-68
2021/05/09 08:55:43;;;;;;;2.07;1.53;;;;;;;;;;5074955;28;20280;-68
2021/05/09 08:58:11;;;;;;;2.33;1.90;;;;;;;;;;5082403;28;20198;-67
2021/05/09 09:00:37;;;;;;;2.57;1.50;;;;;;;;;;5061891;28;20199;-66
2021/05/09 09:03:04;;;;;;;5.77;1.80;;;;;;;;;;5078019;28;20250;-67
2021/05/09 09:05:37;;;;;;;2.10;1.97;;;;;;;;;;5083411;28;20618;-66
2021/05/09 09:08:03;;;;;;;1.63;1.53;;;;;;;;;;5067721;28;20187;-67
2021/05/09 09:10:31;;;;;;;1.73;1.60;;;;;;;;;;5084320;28;20184;-64
2021/05/09 09:12:59;;;;;;;1.67;1.57;;;;;;;;;;5058291;28;20215;-66
2021/05/09 09:15:26;;;;;;;4.00;1.57;;;;;;;;;;5074163;28;20173;-66
2021/05/09 09:17:52;;;;;;;2.77;1.93;;;;;;;;;;5054116;28;20184;-66
2021/05/09 09:20:18;;;;;;;2.65;1.80;;;;;;;;;;5086618;28;20924;-67
2021/05/09 09:22:52;;;;;;;3.00;1.60;;;;;;;;;;5059915;28;20263;-67
2021/05/09 09:25:19;;;;;;;2.57;1.70;;;;;;;;;;5076679;28;20171;-66
2021/05/09 09:27:46;;;;;;;2.00;1.80;;;;;;;;;;5079929;28;20171;-64
2021/05/09 09:30:13;;;;;;;3.40;2.00;;;;;;;;;;5090698;28;20627;-64
2021/05/09 09:32:39;;;;;;;11.63;2.23;;;;;;;;;;5082125;28;20634;-61
2021/05/09 09:35:25;;;;;;;2.20;1.50;;;;;;;;;;5062465;28;20173;-63
2021/05/09 09:37:51;;;;;;;2.17;1.97;;;;;;;;;;5063025;28;20267;-62
2021/05/09 09:40:17;;;;;;;2.23;1.90;;;;;;;;;;5053927;28;20541;-62
2021/05/09 09:42:48;;;;;;;2.20;2.03;;;;;;;;;;5046993;28;20632;-62
2021/05/09 09:45:17;;;;;;;3.97;1.93;;;;;;;;;;5045362;28;20193;-64
2021/05/09 09:47:53;;;;;;;1.80;1.60;;;;;;;;;;5059987;28;20193;-62
2021/05/09 09:50:38;;;;;;;2.40;1.73;;;;;;;;;;5051882;28;20235;-63
2021/05/09 09:53:23;;;;;;;1.80;1.70;;;;;;;;;;5055430;28;20249;-64
2021/05/09 09:56:01;;;;;;;2.30;1.63;;;;;;;;;;5054452;28;20295;-65
2021/05/09 09:58:46;;;;;;;2.03;1.93;;;;;;;;;;5074606;28;21017;-63
2021/05/09 10:01:13;;;;;;;3.30;1.93;;;;;;;;;;5061176;28;20792;-62
2021/05/09 10:03:39;;;;;;;3.23;1.73;;;;;;;;;;5065916;28;20177;-62
2021/05/09 10:06:06;;;;;;;1.93;1.83;;;;;;;;;;5061024;28;20169;-62
2021/05/09 10:08:35;;;;;;;3.80;2.17;;;;;;;;;;5072918;28;20191;-62
2021/05/09 10:11:03;;;;;;;2.43;2.00;;;;;;;;;;5073924;28;20193;-63
2021/05/09 10:13:29;;;;;;;3.30;1.83;;;;;;;;;;5052742;28;20271;-65
2021/05/09 10:15:56;;;;;;;2.03;1.90;;;;;;;;;;5054265;28;20192;-63
2021/05/09 10:18:23;;;;;;;2.73;1.87;;;;;;;;;;5045671;28;20264;-63
2021/05/09 10:20:49;;;;;;;2.23;1.73;;;;;;;;;;5071696;28;20238;-64
2021/05/09 10:23:17;;;;;;;2.57;1.93;;;;;;;;;;5051768;28;20176;-63
2021/05/09 10:25:48;;;;;;;2.00;1.80;;;;;;;;;;5072463;28;20659;-63
2021/05/09 10:28:15;;;;;;;2.30;2.07;;;;;;;;;;5064786;28;20176;-63
2021/05/09 10:30:44;;;;;;;2.70;2.13;;;;;;;;;;5069151;28;20268;-63
2021/05/09 10:33:10;;;;;;;2.47;2.10;;;;;;;;;;5074687;28;20712;-63
2021/05/09 10:35:37;;;;;;;3.27;2.30;;;;;;;;;;5057061;28;20195;-63
2021/05/09 10:38:04;;;;;;;2.80;2.30;;;;;;;;;;5071068;28;20175;-63
2021/05/09 10:40:38;;;;;;;2.33;1.93;;;;;;;;;;5081752;28;20211;-63
2021/05/09 10:43:04;;;;;;;3.17;2.28;;;;;;;;;;5073915;28;20867;-63
2021/05/09 10:45:32;;;;;;;3.73;2.13;;;;;;;;;;5072533;28;20200;-63
2021/05/09 10:48:18;;;;;;;3.43;2.20;;;;;;;;;;5088002;28;20175;-63
2021/05/09 10:51:14;;;;;;;3.97;2.30;;;;;;;;;;5075995;28;20235;-63
2021/05/09 10:53:41;;;;;;;4.27;2.57;;;;;;;;;;5081350;28;20176;-65
2021/05/09 10:56:07;;;;;;;2.27;1.90;;;;;;;;;;5077248;28;20536;-63
2021/05/09 10:58:40;;;;;;;5.83;2.30;;;;;;;;;;5072362;28;20191;-63
2021/05/09 11:01:09;;;;;;;3.53;2.40;;;;;;;;;;5073327;28;20269;-63
2021/05/09 11:03:39;;;;;;;6.73;2.27;;;;;;;;;;5066893;28;20180;-66
2021/05/09 11:06:12;;;;;;;2.60;2.13;;;;;;;;;;5066849;28;20210;-67
2021/05/09 11:08:48;;;;;;;5.90;2.13;;;;;;;;;;5081434;28;20456;-68
2021/05/09 11:11:15;;;;;;;2.10;1.90;;;;;;;;;;5083971;28;20175;-68
2021/05/09 11:14:02;;;;;;;4.00;2.77;;;;;;;;;;5089800;28;20184;-68
2021/05/09 11:16:29;;;;;;;3.30;2.30;;;;;;;;;;5075977;28;20193;-68
2021/05/09 11:19:02;;;;;;;3.63;1.90;;;;;;;;;;5085429;28;20719;-70
2021/05/09 11:21:30;;;;;;;3.90;2.40;;;;;;;;;;5070987;28;20209;-67
2021/05/09 11:23:57;;;;;;;3.03;2.07;;;;;;;;;;5062299;28;20264;-69
2021/05/09 11:26:23;;;;;;;3.47;2.20;;;;;;;;;;5071287;28;20702;-68
2021/05/09 11:29:07;;;;;;;3.23;2.20;;;;;;;;;;5089829;28;20215;-69
2021/05/09 11:31:37;;;;;;;3.17;1.80;;;;;;;;;;5084167;28;20192;-67
2021/05/09 11:34:04;;;;;;;2.23;2.03;;;;;;;;;;5088950;28;20217;-67
2021/05/09 11:36:31;;;;;;;2.40;2.17;;;;;;;;;;5090988;28;20255;-67
2021/05/09 11:39:07;;;;;;;2.30;2.03;;;;;;;;;;5079961;28;20226;-66
2021/05/09 11:41:47;;;;;;;3.03;2.10;;;;;;;;;;5081066;28;20186;-69
2021/05/09 11:44:13;;;;;;;3.60;2.20;;;;;;;;;;5084723;28;20585;-68
2021/05/09 11:46:39;;;;;;;2.07;1.90;;;;;;;;;;5069214;28;20178;-70
2021/05/09 11:49:14;;;;;;;6.67;2.47;;;;;;;;;;5083315;28;20210;-68
2021/05/09 11:52:19;;;;;;;2.10;1.90;;;;;;;;;;5077492;28;20179;-69
2021/05/09 11:54:50;;;;;;;5.17;2.33;;;;;;;;;;5031913;28;20646;-68
2021/05/09 11:57:18;;;;;;;4.27;2.50;;;;;;;;;;5086419;28;20670;-70
2021/05/09 11:59:48;;;;;;;2.63;2.07;;;;;;;;;;5085001;28;20191;-68
2021/05/09 12:02:21;;;;;;;3.50;2.07;;;;;;;;;;5061028;28;20179;-66
2021/05/09 12:04:55;;;;;;;3.47;2.30;;;;;;;;;;5087684;28;20563;-68
2021/05/09 12:07:22;;;;;;;5.40;2.03;;;;;;;;;;5063030;28;20952;-66
2021/05/09 12:09:55;;;;;;;2.63;2.23;;;;;;;;;;5080108;28;20176;-65
2021/05/09 12:12:22;;;;;;;5.03;2.23;;;;;;;;;;5075858;28;20176;-68
2021/05/09 12:14:50;;;;;;;2.23;1.93;;;;;;;;;;5066563;28;20571;-66
2021/05/09 12:17:20;;;;;;;3.73;2.30;;;;;;;;;;5072725;28;21185;-64
2021/05/09 12:19:46;;;;;;;2.73;2.30;;;;;;;;;;5086422;28;20176;-65
2021/05/09 12:22:12;;;;;;;6.07;2.40;;;;;;;;;;5083122;28;20180;-67
2021/05/09 12:24:49;;;;;;;3.13;1.90;;;;;;;;;;5072343;28;20181;-65
2021/05/09 12:27:15;;;;;;;5.10;2.30;;;;;;;;;;5076887;28;20191;-66
2021/05/09 12:29:52;;;;;;;2.10;1.90;;;;;;;;;;5057365;28;20742;-66
2021/05/09 12:32:23;;;;;;;2.07;1.97;;;;;;;;;;5077842;28;20222;-66
2021/05/09 12:35:09;;;;;;;4.07;1.97;;;;;;;;;;5070809;28;20195;-67
2021/05/09 12:37:36;;;;;;;6.67;2.60;;;;;;;;;;5064222;28;20215;-66
2021/05/09 12:40:32;;;;;;;2.63;2.03;;;;;;;;;;5066841;28;20207;-67
2021/05/09 12:43:00;;;;;;;4.73;2.47;;;;;;;;;;5066179;28;20184;-66
2021/05/09 12:45:32;;;;;;;3.80;2.30;;;;;;;;;;5080914;28;20175;-66
2021/05/09 12:48:05;;;;;;;2.37;2.17;;;;;;;;;;5082517;28;20169;-67
2021/05/09 12:50:44;;;;;;;6.03;2.40;;;;;;;;;;5079695;28;20272;-65
2021/05/09 12:53:10;;;;;;;2.77;2.53;;;;;;;;;;5072096;28;20191;-68
2021/05/09 12:55:36;;;;;;;2.00;1.90;;;;;;;;;;5068807;28;20180;-66
2021/05/09 12:58:10;;;;;;;1.80;1.70;;;;;;;;;;5086796;28;20182;-67
2021/05/09 13:00:36;;;;;;;2.03;1.80;;;;;;;;;;5083145;28;20856;-67
2021/05/09 13:03:02;;;;;;;4.07;1.80;;;;;;;;;;5081385;28;20176;-68
2021/05/09 13:05:28;;;;;;;2.67;1.87;;;;;;;;;;5081038;28;20188;-66
2021/05/09 13:07:55;;;;;;;2.47;2.00;;;;;;;;;;5083591;28;20176;-66
2021/05/09 13:10:22;;;;;;;3.17;2.10;;;;;;;;;;5088022;28;20180;-68
2021/05/09 13:12:53;;;;;;;1.97;1.77;;;;;;;;;;5068317;28;20253;-69
2021/05/09 13:15:20;;;;;;;2.77;2.33;;;;;;;;;;5085536;28;20186;-67
2021/05/09 13:17:46;;;;;;;5.90;2.97;;;;;;;;;;5083019;28;20226;-68
2021/05/09 13:20:13;;;;;;;2.80;2.40;;;;;;;;;;5071136;28;20169;-63
2021/05/09 13:22:39;;;;;;;3.50;1.80;;;;;;;;;;5090375;28;20569;-63
2021/05/09 13:25:06;;;;;;;2.80;2.60;;;;;;;;;;5083590;28;20180;-63
2021/05/09 13:27:32;;;;;;;5.17;2.23;;;;;;;;;;5084561;28;20186;-63
2021/05/09 13:30:02;;;;;;;2.17;1.97;;;;;;;;;;5068089;28;20184;-64
2021/05/09 13:32:28;;;;;;;3.47;2.50;;;;;;;;;;5085696;28;20633;-64
2021/05/09 13:34:55;;;;;;;3.80;2.77;;;;;;;;;;5078027;28;20208;-64
2021/05/09 13:37:21;;;;;;;20.17;14.27;;;;;;;;;;5080660;28;20532;-64
2021/05/09 13:39:47;;;;;;;32.37;23.97;;;;;;;;;;5087177;28;20186;-63
2021/05/09 13:42:14;;;;;;;62.37;45.80;;;;;;;;;;5083503;28;20172;-63
2021/05/09 13:44:40;;;;;;;117.00;59.57;;;;;;;;;;5076011;28;20183;-63
2021/05/09 13:47:06;;;;;;;92.33;62.13;;;;;;;;;;5070985;28;20336;-63
2021/05/09 13:49:32;;;;;;;87.50;65.60;;;;;;;;;;5087376;28;20561;-62
2021/05/09 13:51:58;;;;;;;84.53;60.10;;;;;;;;;;5075907;28;20464;-65
2021/05/09 13:54:24;;;;;;;74.17;54.90;;;;;;;;;;5093828;28;20179;-66
2021/05/09 13:56:50;;;;;;;65.37;51.27;;;;;;;;;;5080425;28;20647;-63
2021/05/09 13:59:16;;;;;;;63.63;53.57;;;;;;;;;;5079590;28;20247;-63
2021/05/09 14:01:42;;;;;;;58.47;46.53;;;;;;;;;;5091425;28;20180;-62
2021/05/09 14:04:10;;;;;;;50.70;44.07;;;;;;;;;;5087830;28;20199;-65
2021/05/09 14:06:36;;;;;;;47.27;40.00;;;;;;;;;;5073701;28;20708;-63
2021/05/09 14:09:03;;;;;;;44.37;37.03;;;;;;;;;;5072467;28;20184;-63
2021/05/09 14:11:29;;;;;;;37.07;33.10;;;;;;;;;;5089822;28;20184;-61
2021/05/09 14:13:55;;;;;;;40.23;32.37;;;;;;;;;;5093260;28;20254;-62
2021/05/09 14:16:23;;;;;;;38.50;28.87;;;;;;;;;;5088670;28;20191;-60
2021/05/09 14:18:49;;;;;;;24.40;18.00;;;;;;;;;;5091915;28;20193;-61
2021/05/09 14:21:15;;;;;;;35.63;25.37;;;;;;;;;;5081562;28;20180;-63
2021/05/09 14:23:42;;;;;;;26.77;21.90;;;;;;;;;;5082934;28;20233;-62
2021/05/09 14:26:08;;;;;;;25.13;17.07;;;;;;;;;;5086682;28;20213;-65
2021/05/09 14:28:34;;;;;;;16.90;14.27;;;;;;;;;;5076310;28;20646;-63
2021/05/09 14:31:01;;;;;;;14.53;12.93;;;;;;;;;;5068846;28;20672;-64
2021/05/09 14:33:27;;;;;;;8.60;7.20;;;;;;;;;;5086545;28;20303;-63
2021/05/09 14:35:53;;;;;;;7.23;4.50;;;;;;;;;;5093552;28;20199;-63
2021/05/09 14:38:19;;;;;;;3.57;3.00;;;;;;;;;;5082726;28;20191;-62
2021/05/09 14:40:45;;;;;;;6.10;3.23;;;;;;;;;;5090089;28;20179;-62
2021/05/09 14:43:11;;;;;;;5.17;3.03;;;;;;;;;;5076861;28;20177;-62